Terminal Aerodrome Forecast
Issued by NWS Blacksburg, VA

Home | Current Version | Previous Version | Text Only | Print | Product List | Glossary On
Versions: 1 2 3 4 5 6 7 8 9 10 11 12 13 14 15 16 17 18 19 20 21 22 23 24 25 26 27 28
000
FTUS41 KRNK 211140
TAFDAN
TAF
KDAN 211140Z 2112/2212 00000KT 1/2SM FG OVC003
     FM211400 00000KT 3/4SM BR OVC003
     FM211600 00000KT 4SM BR OVC005
     FM211800 VRB03KT P6SM OVC015
     FM212000 VRB03KT 5SM -SHRA BR BKN015 OVC080
     FM212200 VRB03KT 2SM SHRA BR BKN015 OVC080
     FM220200 00000KT 5SM -SHRA BR OVC008
     FM220300 00000KT 2SM BR OVC008
     FM221100 00000KT 1SM -SHRA BR OVC005=

USA.gov is the U.S. government's official web portal to all federal, state and local government web resources and services.